This is the latest recevied weather packets stored in our database for station/object EA1GLE. If no packets are shown the sender has not sent any weather packets the latest 10 day(s).
| Time | Temp. | Humidity | Pressure | Rain* | Wind** | Luminosity | Snow |
|---|---|---|---|---|---|---|---|
| 1778047203 | 4.44° C | 99% | 1015.5 hPa | 0 mm | - | 48 W/m² | - |
| 1778046304 | 3.89° C | 99% | 1015.5 hPa | 0 mm | - | 33 W/m² | - |
| 1778043243 | 3.33° C | 99% | 1015.3 hPa | 0 mm | - | 0 W/m² | - |
| 1778042703 | 3.89° C | 99% | 1015.3 hPa | 0 mm | - | 0 W/m² | - |
| 1778039643 | 3.33° C | 99% | 1015.8 hPa | 0 mm | - | 0 W/m² | - |
| 1778020697 | 5.56° C | 99% | 1016.3 hPa | 0 mm | - | 0 W/m² | - |
| 1778016558 | 6.11° C | 98% | 1016.4 hPa | 0 mm | - | 0 W/m² | - |
| 1778015344 | 5.56° C | 98% | 1016.5 hPa | 0 mm | - | 0 W/m² | - |
| 1778014037 | 6.11° C | 97% | 1016.2 hPa | 0 mm | - | 0 W/m² | - |
| 1778007243 | 8.89° C | 85% | 1015.5 hPa | 0 mm | - | 13 W/m² | - |
| 1778004543 | 8.89° C | 87% | 1015.2 hPa | 0.25 mm | - | 31 W/m² | - |
| 1778002564 | 8.89° C | 93% | 1015.1 hPa | 0.51 mm | - | 202 W/m² | - |
| 1778000403 | 8.33° C | 94% | 1015.7 hPa | 0.25 mm | - | 52 W/m² | - |
| 1777998964 | 8.33° C | 94% | 1015.4 hPa | 1.02 mm | - | 17 W/m² | - |
| 1777993878 | 9.44° C | 81% | 1015.1 hPa | 0 mm | - | 42 W/m² | - |
| 1777989243 | 13.33° C | 62% | 1014.5 hPa | 0 mm | - | 264 W/m² | - |
| 1777987623 | 11.67° C | 68% | 1014.9 hPa | 0 mm | - | 231 W/m² | - |
| 1777985104 | 11.67° C | 72% | 1014.9 hPa | 0 mm | - | 385 W/m² | - |
| 1777981504 | 11.11° C | 71% | 1015.2 hPa | 0 mm | - | 670 W/m² | - |
| 1777980423 | 10.56° C | 69% | 1015.3 hPa | 0 mm | - | 955 W/m² | - |
| 1777979343 | 10° C | 72% | 1015.5 hPa | 0 mm | - | 232 W/m² | - |
| 1777977364 | 10° C | 76% | 1015.6 hPa | 0 mm | - | 121 W/m² | - |
| 1777975743 | 10.56° C | 76% | 1015.7 hPa | 0 mm | - | 143 W/m² | - |
| 1777972683 | 8.89° C | 86% | 1015.6 hPa | 0 mm | - | 337 W/m² | - |
| 1777969624 | 7.78° C | 91% | 1015.8 hPa | 0 mm | - | 127 W/m² | - |
* Rain latest hour (hover to see other rain measurements)
** Current wind speed in m/s (hover to see current wind gust speed)